Time;durP1;ratioP1;P1;durP2;ratioP2;P2;SDS_P1;SDS_P2;PMS_P1;PMS_P2;Temp;Humidity;BMP_temperature;BMP_pressure;BME280_temperature;BME280_humidity;BME280_pressure;Samples;Min_cycle;Max_cycle;Signal;HPM_P1;HPM_P2
2023/10/29 00:00:01;;;;;;;0.20;0.20;;;;;;;;;;5113263;28;20032;-73
2023/10/29 00:02:38;;;;;;;0.20;0.20;;;;;;;;;;5113415;28;20490;-72
2023/10/29 00:05:06;;;;;;;0.20;0.20;;;;;;;;;;5113357;28;20023;-73
2023/10/29 00:07:39;;;;;;;0.10;0.10;;;;;;;;;;5095262;28;20110;-72
2023/10/29 00:10:08;;;;;;;0.13;0.13;;;;;;;;;;5113435;28;20038;-73
2023/10/29 00:12:44;;;;;;;0.20;0.20;;;;;;;;;;5113373;28;20031;-73
2023/10/29 00:15:12;;;;;;;0.20;0.20;;;;;;;;;;5113569;28;20110;-73
2023/10/29 00:17:38;;;;;;;0.20;0.20;;;;;;;;;;5093483;28;20131;-73
2023/10/29 00:20:07;;;;;;;0.20;0.20;;;;;;;;;;5113137;28;20059;-72
2023/10/29 00:22:32;;;;;;;0.20;0.20;;;;;;;;;;5113097;28;20031;-73
2023/10/29 00:24:58;;;;;;;1.05;1.05;;;;;;;;;;5112996;28;20035;-73
2023/10/29 00:27:24;;;;;;;0.17;0.17;;;;;;;;;;5113215;28;20039;-73
2023/10/29 00:29:50;;;;;;;0.13;0.13;;;;;;;;;;5095111;28;20062;-73
2023/10/29 00:32:18;;;;;;;0.10;0.10;;;;;;;;;;5113034;28;20077;-74
2023/10/29 00:34:45;;;;;;;0.20;0.20;;;;;;;;;;5112944;28;20088;-73
2023/10/29 00:37:12;;;;;;;0.20;0.20;;;;;;;;;;5094831;28;20107;-73
2023/10/29 00:39:38;;;;;;;0.17;0.17;;;;;;;;;;5094580;28;20036;-73
2023/10/29 00:42:03;;;;;;;0.20;0.20;;;;;;;;;;5113024;28;20406;-74
2023/10/29 00:44:29;;;;;;;0.13;0.13;;;;;;;;;;5112852;28;20031;-73
2023/10/29 00:46:55;;;;;;;0.10;0.10;;;;;;;;;;5094679;28;20433;-73
2023/10/29 00:49:21;;;;;;;0.10;0.10;;;;;;;;;;5112635;28;20088;-73
2023/10/29 00:51:46;;;;;;;0.15;0.15;;;;;;;;;;5112591;28;20027;-73
2023/10/29 00:54:12;;;;;;;0.15;0.15;;;;;;;;;;5112396;28;20088;-73
2023/10/29 00:56:39;;;;;;;0.20;0.20;;;;;;;;;;5113029;28;20067;-73
2023/10/29 00:59:06;;;;;;;0.20;0.20;;;;;;;;;;5114198;28;20055;-73
2023/10/29 01:01:34;;;;;;;0.10;0.10;;;;;;;;;;5116319;28;20035;-73
2023/10/29 01:04:00;;;;;;;0.20;0.20;;;;;;;;;;5116193;28;20039;-73
2023/10/29 01:06:26;;;;;;;0.20;0.20;;;;;;;;;;5116029;28;20046;-73
2023/10/29 01:08:51;;;;;;;0.20;0.20;;;;;;;;;;5097801;28;20540;-73
2023/10/29 01:11:17;;;;;;;0.20;0.20;;;;;;;;;;5097710;28;20118;-73
2023/10/29 01:13:42;;;;;;;0.20;0.20;;;;;;;;;;5115941;28;20567;-73
2023/10/29 01:16:08;;;;;;;0.20;0.20;;;;;;;;;;5116075;28;20069;-73
2023/10/29 01:18:34;;;;;;;0.20;0.20;;;;;;;;;;5115865;28;20031;-73
2023/10/29 01:21:00;;;;;;;0.20;0.20;;;;;;;;;;5097515;28;20023;-73
2023/10/29 01:23:26;;;;;;;0.20;0.20;;;;;;;;;;5097566;28;20461;-73
2023/10/29 01:25:51;;;;;;;0.20;0.20;;;;;;;;;;5097619;28;20058;-73
2023/10/29 01:28:17;;;;;;;0.10;0.10;;;;;;;;;;5115772;28;20044;-73
2023/10/29 01:30:44;;;;;;;0.20;0.20;;;;;;;;;;5097309;28;20015;-72
2023/10/29 01:33:10;;;;;;;0.20;0.20;;;;;;;;;;5115545;28;20043;-72
2023/10/29 01:35:35;;;;;;;0.20;0.20;;;;;;;;;;5097395;28;20478;-72
2023/10/29 01:38:01;;;;;;;0.20;0.20;;;;;;;;;;5097270;28;20051;-71
2023/10/29 01:40:27;;;;;;;0.10;0.10;;;;;;;;;;5115476;28;20116;-71
2023/10/29 01:42:53;;;;;;;0.20;0.20;;;;;;;;;;5097548;28;20078;-72
2023/10/29 01:45:19;;;;;;;0.10;0.10;;;;;;;;;;5080492;28;20059;-73
2023/10/29 01:47:45;;;;;;;0.10;0.10;;;;;;;;;;5115481;28;20363;-72
2023/10/29 01:50:11;;;;;;;0.10;0.10;;;;;;;;;;5115348;28;20019;-71
2023/10/29 01:52:38;;;;;;;0.10;0.10;;;;;;;;;;5115264;28;20391;-72
2023/10/29 01:55:05;;;;;;;0.10;0.10;;;;;;;;;;5115409;28;20023;-72
2023/10/29 01:57:32;;;;;;;0.10;0.10;;;;;;;;;;5097395;28;20088;-72
2023/10/29 01:59:59;;;;;;;0.20;0.20;;;;;;;;;;5115211;28;20023;-71
2023/10/29 02:02:24;;;;;;;0.22;0.22;;;;;;;;;;5113864;28;20042;-71
2023/10/29 02:04:50;;;;;;;0.15;0.15;;;;;;;;;;5115092;28;20388;-72
2023/10/29 02:07:15;;;;;;;0.10;0.10;;;;;;;;;;5096902;28;20039;-71
2023/10/29 02:09:41;;;;;;;0.20;0.20;;;;;;;;;;5114980;28;20429;-71
2023/10/29 02:12:06;;;;;;;0.10;0.10;;;;;;;;;;5115030;28;20391;-72
2023/10/29 02:14:34;;;;;;;0.20;0.20;;;;;;;;;;5114975;28;20059;-73
2023/10/29 02:16:59;;;;;;;0.20;0.20;;;;;;;;;;5114960;28;20032;-71
2023/10/29 02:19:25;;;;;;;0.10;0.10;;;;;;;;;;5115140;28;20027;-71
2023/10/29 02:21:54;;;;;;;0.10;0.10;;;;;;;;;;5096601;28;20031;-71
2023/10/29 02:24:20;;;;;;;0.13;0.13;;;;;;;;;;5114726;28;20348;-71
2023/10/29 02:26:45;;;;;;;0.17;0.17;;;;;;;;;;5114685;28;20045;-72
2023/10/29 02:29:11;;;;;;;0.20;0.20;;;;;;;;;;5096653;28;20028;-72
2023/10/29 02:31:36;;;;;;;0.20;0.20;;;;;;;;;;5114632;28;20035;-73
2023/10/29 02:34:02;;;;;;;0.15;0.15;;;;;;;;;;5096409;28;20104;-73
2023/10/29 02:36:27;;;;;;;0.30;0.30;;;;;;;;;;5114784;28;20027;-71
2023/10/29 02:38:53;;;;;;;0.10;0.10;;;;;;;;;;5096488;28;20420;-71
2023/10/29 02:41:19;;;;;;;0.17;0.17;;;;;;;;;;5114670;28;20031;-71
2023/10/29 02:43:44;;;;;;;0.10;0.10;;;;;;;;;;5096405;28;20031;-71
2023/10/29 02:46:11;;;;;;;0.10;0.10;;;;;;;;;;5114396;28;20497;-71
2023/10/29 02:48:37;;;;;;;0.20;0.20;;;;;;;;;;5114416;28;20027;-72
2023/10/29 02:51:03;;;;;;;0.20;0.20;;;;;;;;;;5114332;28;20383;-72
2023/10/29 02:53:28;;;;;;;0.10;0.10;;;;;;;;;;5114411;28;20114;-72
2023/10/29 02:55:58;;;;;;;0.20;0.20;;;;;;;;;;5114468;28;20039;-72
2023/10/29 02:58:24;;;;;;;0.20;0.20;;;;;;;;;;5114380;28;20039;-72
2023/10/29 03:00:49;;;;;;;0.20;0.20;;;;;;;;;;5095850;28;20130;-71
2023/10/29 03:03:15;;;;;;;0.10;0.10;;;;;;;;;;5095858;28;20042;-73
2023/10/29 03:05:40;;;;;;;0.20;0.20;;;;;;;;;;5114637;28;20119;-72
2023/10/29 03:08:06;;;;;;;0.10;0.10;;;;;;;;;;5114217;28;20027;-72
2023/10/29 03:10:32;;;;;;;0.10;0.10;;;;;;;;;;5112879;28;20036;-72
2023/10/29 03:12:58;;;;;;;0.20;0.20;;;;;;;;;;5114103;28;20062;-73
2023/10/29 03:15:23;;;;;;;0.17;0.17;;;;;;;;;;5114083;28;20032;-72
2023/10/29 03:17:49;;;;;;;0.20;0.20;;;;;;;;;;5095593;28;20034;-71
2023/10/29 03:20:16;;;;;;;0.17;0.17;;;;;;;;;;5113833;28;20169;-71
2023/10/29 03:22:42;;;;;;;0.15;0.15;;;;;;;;;;5113131;28;20051;-73
2023/10/29 03:25:08;;;;;;;0.20;0.20;;;;;;;;;;5113942;28;20058;-73
2023/10/29 03:27:34;;;;;;;0.13;0.13;;;;;;;;;;5113485;28;20042;-71
2023/10/29 03:30:00;;;;;;;0.10;0.10;;;;;;;;;;5112754;28;20054;-71
2023/10/29 03:32:26;;;;;;;0.20;0.20;;;;;;;;;;5095391;28;20039;-71
2023/10/29 03:34:51;;;;;;;0.10;0.10;;;;;;;;;;5113930;28;20032;-71
2023/10/29 03:37:18;;;;;;;0.10;0.10;;;;;;;;;;5112618;28;20024;-71
2023/10/29 03:39:45;;;;;;;0.20;0.20;;;;;;;;;;5095953;28;20384;-70
2023/10/29 03:42:11;;;;;;;0.10;0.10;;;;;;;;;;5112427;28;20126;-70
2023/10/29 03:44:36;;;;;;;0.20;0.20;;;;;;;;;;5113751;28;20038;-71
2023/10/29 03:47:02;;;;;;;0.20;0.20;;;;;;;;;;5113553;28;20037;-71
2023/10/29 03:49:27;;;;;;;0.10;0.10;;;;;;;;;;5113342;28;20080;-71
2023/10/29 03:51:53;;;;;;;0.10;0.10;;;;;;;;;;5113533;28;20570;-71
2023/10/29 03:54:20;;;;;;;0.10;0.10;;;;;;;;;;5095110;28;20367;-72
2023/10/29 03:56:45;;;;;;;0.10;0.10;;;;;;;;;;5113382;28;20058;-72
2023/10/29 03:59:11;;;;;;;0.10;0.10;;;;;;;;;;5095081;28;20363;-72
2023/10/29 04:01:36;;;;;;;0.20;0.20;;;;;;;;;;5112726;28;20085;-71
2023/10/29 04:04:03;;;;;;;0.10;0.10;;;;;;;;;;5108541;28;20042;-71
2023/10/29 04:06:30;;;;;;;0.20;0.20;;;;;;;;;;5090363;28;20036;-71
2023/10/29 04:08:56;;;;;;;0.20;0.20;;;;;;;;;;5109581;28;20031;-71
2023/10/29 04:11:21;;;;;;;0.17;0.17;;;;;;;;;;5090978;28;20057;-72
2023/10/29 04:13:47;;;;;;;0.10;0.10;;;;;;;;;;5109114;28;20035;-71
2023/10/29 04:16:13;;;;;;;0.10;0.10;;;;;;;;;;5109104;28;20031;-71
2023/10/29 04:18:38;;;;;;;0.20;0.20;;;;;;;;;;5108836;28;20062;-71
2023/10/29 04:21:06;;;;;;;0.20;0.20;;;;;;;;;;5109014;28;20045;-73
2023/10/29 04:23:31;;;;;;;0.32;0.32;;;;;;;;;;5107764;28;20047;-72
2023/10/29 04:25:57;;;;;;;0.10;0.10;;;;;;;;;;5109157;28;20036;-73
2023/10/29 04:28:23;;;;;;;0.10;0.10;;;;;;;;;;5109147;28;20028;-71
2023/10/29 04:30:49;;;;;;;0.20;0.20;;;;;;;;;;5108511;28;20366;-71
2023/10/29 04:33:14;;;;;;;0.20;0.20;;;;;;;;;;5109237;28;20070;-72
2023/10/29 04:35:40;;;;;;;0.20;0.20;;;;;;;;;;5112783;28;20119;-72
2023/10/29 04:38:06;;;;;;;0.20;0.20;;;;;;;;;;5112448;28;20039;-72
2023/10/29 04:40:33;;;;;;;0.13;0.13;;;;;;;;;;5110850;28;20038;-71
2023/10/29 04:42:59;;;;;;;0.10;0.10;;;;;;;;;;5112435;28;20035;-72
2023/10/29 04:45:25;;;;;;;0.30;0.30;;;;;;;;;;5112418;28;20035;-70
2023/10/29 04:47:51;;;;;;;0.20;0.20;;;;;;;;;;5112254;28;20043;-70
2023/10/29 04:50:16;;;;;;;0.10;0.10;;;;;;;;;;5112045;28;20043;-69
2023/10/29 04:52:42;;;;;;;0.10;0.10;;;;;;;;;;5111051;28;20042;-71
2023/10/29 04:55:08;;;;;;;0.10;0.10;;;;;;;;;;5110994;28;20270;-70
2023/10/29 04:57:35;;;;;;;0.20;0.20;;;;;;;;;;5110319;28;20047;-70
2023/10/29 05:00:01;;;;;;;1.67;1.55;;;;;;;;;;5109344;28;20080;-71
2023/10/29 05:02:27;;;;;;;0.20;0.20;;;;;;;;;;5108685;28;20499;-69
2023/10/29 05:04:53;;;;;;;0.20;0.20;;;;;;;;;;5090441;28;20071;-69
2023/10/29 05:07:19;;;;;;;0.20;0.20;;;;;;;;;;5109043;28;20086;-69
2023/10/29 05:09:45;;;;;;;0.10;0.10;;;;;;;;;;5109538;28;20399;-70
2023/10/29 05:12:10;;;;;;;0.10;0.10;;;;;;;;;;5110063;28;20032;-71
2023/10/29 05:14:36;;;;;;;0.10;0.10;;;;;;;;;;5092633;28;20398;-71
2023/10/29 05:17:02;;;;;;;0.73;0.73;;;;;;;;;;5111694;28;20020;-72
2023/10/29 05:19:27;;;;;;;0.10;0.10;;;;;;;;;;5111703;28;20044;-70
2023/10/29 05:21:53;;;;;;;0.10;0.10;;;;;;;;;;5111594;28;20028;-69
2023/10/29 05:24:18;;;;;;;0.10;0.10;;;;;;;;;;5112047;28;20039;-69
2023/10/29 05:26:44;;;;;;;0.10;0.10;;;;;;;;;;5111529;28;20518;-70
2023/10/29 05:29:10;;;;;;;0.10;0.10;;;;;;;;;;5111683;28;20039;-70
2023/10/29 05:31:35;;;;;;;0.10;0.10;;;;;;;;;;5111452;28;20020;-72
2023/10/29 05:34:01;;;;;;;0.10;0.10;;;;;;;;;;5111754;28;20400;-71
2023/10/29 05:36:27;;;;;;;0.20;0.20;;;;;;;;;;5112029;28;20369;-72
2023/10/29 05:38:52;;;;;;;0.10;0.10;;;;;;;;;;5111552;28;20032;-70
2023/10/29 05:41:18;;;;;;;0.10;0.10;;;;;;;;;;5111279;28;20060;-72
2023/10/29 05:43:43;;;;;;;0.13;0.13;;;;;;;;;;5111160;28;20062;-70
2023/10/29 05:46:12;;;;;;;0.20;0.20;;;;;;;;;;5110764;28;20390;-72
2023/10/29 05:48:38;;;;;;;0.10;0.10;;;;;;;;;;5111166;28;20043;-73
2023/10/29 05:51:03;;;;;;;0.10;0.10;;;;;;;;;;5111272;28;20027;-72
2023/10/29 05:53:29;;;;;;;0.15;0.15;;;;;;;;;;5076199;28;20039;-72
2023/10/29 05:55:56;;;;;;;0.10;0.10;;;;;;;;;;5111785;28;20174;-70
2023/10/29 05:58:23;;;;;;;0.10;0.10;;;;;;;;;;5110916;28;20404;-71
2023/10/29 06:00:50;;;;;;;0.13;0.13;;;;;;;;;;5108747;28;20478;-72
2023/10/29 06:03:15;;;;;;;0.20;0.20;;;;;;;;;;5107220;28;20099;-72
2023/10/29 06:05:41;;;;;;;0.20;0.20;;;;;;;;;;5111163;28;20118;-71
2023/10/29 06:08:06;;;;;;;0.20;0.20;;;;;;;;;;5110977;28;20035;-72
2023/10/29 06:10:32;;;;;;;0.10;0.10;;;;;;;;;;5109964;28;20560;-73
2023/10/29 06:12:59;;;;;;;0.20;0.20;;;;;;;;;;5109916;28;20076;-71
2023/10/29 06:15:25;;;;;;;0.10;0.10;;;;;;;;;;5111433;28;20051;-73
2023/10/29 06:17:51;;;;;;;0.10;0.10;;;;;;;;;;5111241;28;20043;-72
2023/10/29 06:20:17;;;;;;;0.10;0.10;;;;;;;;;;5111066;28;20494;-73
2023/10/29 06:22:43;;;;;;;0.20;0.20;;;;;;;;;;5110771;28;20027;-72
2023/10/29 06:25:09;;;;;;;0.20;0.20;;;;;;;;;;5110753;28;20034;-72
2023/10/29 06:27:35;;;;;;;0.20;0.20;;;;;;;;;;5108400;28;20043;-73
2023/10/29 06:30:01;;;;;;;0.20;0.20;;;;;;;;;;5109726;28;20024;-73
2023/10/29 06:32:26;;;;;;;0.10;0.10;;;;;;;;;;5108915;28;20118;-72
2023/10/29 06:34:52;;;;;;;0.10;0.10;;;;;;;;;;5090372;28;20364;-71
2023/10/29 06:37:17;;;;;;;0.20;0.20;;;;;;;;;;5108312;28;20315;-72
2023/10/29 06:39:43;;;;;;;20.40;1.38;;;;;;;;;;5090999;28;20035;-74
2023/10/29 06:42:09;;;;;;;0.10;0.10;;;;;;;;;;5099453;28;20032;-73
2023/10/29 06:44:35;;;;;;;0.17;0.17;;;;;;;;;;5089966;28;20051;-72
2023/10/29 06:47:02;;;;;;;0.55;0.55;;;;;;;;;;5090108;28;20502;-71
2023/10/29 06:49:28;;;;;;;0.10;0.10;;;;;;;;;;5090588;28;20094;-72
2023/10/29 06:51:54;;;;;;;0.20;0.20;;;;;;;;;;5090187;28;20123;-72
2023/10/29 06:54:20;;;;;;;0.20;0.20;;;;;;;;;;5090320;28;20036;-73
2023/10/29 06:56:47;;;;;;;0.20;0.20;;;;;;;;;;5089153;28;20489;-72
2023/10/29 06:59:13;;;;;;;0.30;0.30;;;;;;;;;;5089955;28;20040;-73
2023/10/29 07:01:38;;;;;;;1.75;1.65;;;;;;;;;;5090340;28;20032;-72
2023/10/29 07:04:04;;;;;;;0.20;0.20;;;;;;;;;;5090415;28;20084;-72
2023/10/29 07:06:30;;;;;;;0.10;0.10;;;;;;;;;;5078362;28;20063;-74
2023/10/29 07:08:56;;;;;;;0.25;0.25;;;;;;;;;;5071778;28;20062;-74
2023/10/29 07:11:23;;;;;;;0.30;0.30;;;;;;;;;;5089879;28;20040;-73
2023/10/29 07:13:49;;;;;;;4.00;3.83;;;;;;;;;;5090012;28;20036;-72
2023/10/29 07:16:16;;;;;;;0.15;0.15;;;;;;;;;;5089796;28;20032;-72
2023/10/29 07:18:42;;;;;;;0.20;0.20;;;;;;;;;;5089288;28;20035;-72
2023/10/29 07:21:08;;;;;;;0.57;0.57;;;;;;;;;;5089423;28;20024;-71
2023/10/29 07:23:33;;;;;;;0.20;0.20;;;;;;;;;;5090260;28;20507;-71
2023/10/29 07:25:59;;;;;;;0.20;0.20;;;;;;;;;;5089742;28;20051;-74
2023/10/29 07:28:25;;;;;;;0.30;0.30;;;;;;;;;;5089596;28;20548;-72
2023/10/29 07:30:50;;;;;;;0.30;0.30;;;;;;;;;;5071180;28;20036;-73
2023/10/29 07:33:16;;;;;;;0.17;0.17;;;;;;;;;;5089018;28;20084;-72
2023/10/29 07:35:41;;;;;;;0.10;0.10;;;;;;;;;;5101868;28;20027;-71
2023/10/29 07:38:09;;;;;;;0.20;0.20;;;;;;;;;;5108930;28;20027;-72
2023/10/29 07:40:38;;;;;;;0.13;0.13;;;;;;;;;;5101311;28;20506;-73
2023/10/29 07:43:04;;;;;;;0.20;0.20;;;;;;;;;;5109438;28;20367;-70
2023/10/29 07:45:31;;;;;;;0.30;0.30;;;;;;;;;;5109406;28;20047;-74
2023/10/29 07:47:56;;;;;;;1.45;0.30;;;;;;;;;;5109560;28;20903;-73
2023/10/29 07:50:22;;;;;;;0.20;0.20;;;;;;;;;;5105287;28;20093;-72
2023/10/29 07:52:47;;;;;;;0.40;0.40;;;;;;;;;;5101252;28;20093;-72
2023/10/29 07:55:13;;;;;;;0.20;0.20;;;;;;;;;;5107586;28;20050;-70
2023/10/29 07:57:39;;;;;;;0.20;0.20;;;;;;;;;;5108534;28;20499;-70
2023/10/29 08:00:07;;;;;;;0.40;0.40;;;;;;;;;;5109388;28;20100;-71
2023/10/29 08:02:37;;;;;;;1.33;1.23;;;;;;;;;;5089180;28;20491;-71
2023/10/29 08:05:03;;;;;;;6.88;1.52;;;;;;;;;;5108152;28;20070;-71
2023/10/29 08:07:29;;;;;;;0.22;0.22;;;;;;;;;;5105759;28;20047;-71
2023/10/29 08:09:58;;;;;;;0.20;0.20;;;;;;;;;;5108577;28;20059;-71
2023/10/29 08:12:24;;;;;;;;;;;;;;;;;;5101983;28;20521;-69
2023/10/29 08:14:49;;;;;;;0.30;0.30;;;;;;;;;;5106769;28;19912;-70
2023/10/29 08:17:17;;;;;;;0.82;0.60;;;;;;;;;;5107146;28;20118;-70
2023/10/29 08:19:43;;;;;;;0.30;0.30;;;;;;;;;;5106794;28;20034;-70
2023/10/29 08:22:09;;;;;;;0.52;0.40;;;;;;;;;;5102541;28;20412;-70
2023/10/29 08:24:35;;;;;;;1.67;1.52;;;;;;;;;;5103391;28;20114;-71
2023/10/29 08:27:00;;;;;;;1.25;1.15;;;;;;;;;;5101880;28;20043;-71
2023/10/29 08:29:27;;;;;;;0.75;0.40;;;;;;;;;;5100990;28;20032;-69
2023/10/29 08:31:53;;;;;;;1.15;1.15;;;;;;;;;;5095853;28;20059;-71
2023/10/29 08:34:18;;;;;;;0.40;0.30;;;;;;;;;;5086889;28;20028;-71
2023/10/29 08:36:44;;;;;;;3.53;1.40;;;;;;;;;;5088008;28;20043;-71
2023/10/29 08:39:09;;;;;;;4.25;1.08;;;;;;;;;;5088833;28;20047;-71
2023/10/29 08:41:35;;;;;;;0.80;0.35;;;;;;;;;;5088704;28;20040;-70
2023/10/29 08:44:01;;;;;;;1.73;0.55;;;;;;;;;;5070538;28;20032;-71
2023/10/29 08:46:26;;;;;;;2.92;0.40;;;;;;;;;;5092891;28;20039;-71
2023/10/29 08:48:52;;;;;;;0.40;0.40;;;;;;;;;;5106916;28;20036;-70
2023/10/29 08:51:18;;;;;;;1.10;0.52;;;;;;;;;;5106856;28;20122;-72
2023/10/29 08:53:44;;;;;;;0.22;0.22;;;;;;;;;;5106833;28;20463;-72
2023/10/29 08:56:10;;;;;;;0.22;0.22;;;;;;;;;;5107585;28;20031;-71
2023/10/29 08:58:36;;;;;;;3.65;0.52;;;;;;;;;;5108016;28;20067;-70
2023/10/29 09:01:07;;;;;;;4.03;0.90;;;;;;;;;;5090746;28;20512;-71
2023/10/29 09:03:33;;;;;;;0.73;0.28;;;;;;;;;;5107209;28;20141;-71
2023/10/29 09:06:03;;;;;;;2.55;0.50;;;;;;;;;;5078746;28;20035;-71
2023/10/29 09:08:36;;;;;;;3.67;0.70;;;;;;;;;;5088441;28;20036;-70
2023/10/29 09:11:02;;;;;;;0.20;0.20;;;;;;;;;;5088646;28;20079;-72
2023/10/29 09:13:28;;;;;;;0.80;0.52;;;;;;;;;;5089867;28;20043;-71
2023/10/29 09:15:53;;;;;;;0.70;0.70;;;;;;;;;;5109020;28;20028;-72
2023/10/29 09:18:20;;;;;;;0.30;0.30;;;;;;;;;;5089815;28;20028;-72
2023/10/29 09:20:46;;;;;;;0.30;0.30;;;;;;;;;;5111361;28;20032;-71
2023/10/29 09:23:15;;;;;;;1.60;0.70;;;;;;;;;;5112039;28;20030;-72
2023/10/29 09:25:45;;;;;;;1.20;0.40;;;;;;;;;;5111637;28;20031;-72
2023/10/29 09:28:11;;;;;;;4.25;1.02;;;;;;;;;;5112141;28;20036;-70
2023/10/29 09:30:38;;;;;;;3.72;1.05;;;;;;;;;;5111427;28;20027;-71
2023/10/29 09:33:05;;;;;;;2.47;0.80;;;;;;;;;;5111043;28;20534;-72
2023/10/29 09:35:31;;;;;;;3.53;0.47;;;;;;;;;;5111459;28;20047;-72
2023/10/29 09:37:56;;;;;;;1.85;0.70;;;;;;;;;;5111601;28;20032;-71
2023/10/29 09:40:23;;;;;;;0.63;0.50;;;;;;;;;;5111845;28;20043;-71
2023/10/29 09:42:55;;;;;;;0.98;0.50;;;;;;;;;;5111148;28;20027;-72
2023/10/29 09:45:25;;;;;;;0.73;0.50;;;;;;;;;;5110825;28;20039;-71
2023/10/29 09:47:50;;;;;;;;;;;;;;;;;;5111674;28;20032;-71
2023/10/29 09:50:16;;;;;;;1.80;0.60;;;;;;;;;;5111567;28;20405;-71
2023/10/29 09:52:41;;;;;;;3.08;0.50;;;;;;;;;;5110638;28;20031;-71
2023/10/29 09:55:08;;;;;;;3.38;0.77;;;;;;;;;;5104879;28;20035;-72
2023/10/29 09:57:34;;;;;;;0.20;0.20;;;;;;;;;;5104236;28;20153;-72
2023/10/29 10:00:00;;;;;;;1.15;0.52;;;;;;;;;;5110512;28;20023;-70
2023/10/29 10:02:26;;;;;;;1.30;0.40;;;;;;;;;;5110717;28;20047;-70
2023/10/29 10:04:52;;;;;;;2.72;0.55;;;;;;;;;;5110968;28;20036;-70
2023/10/29 10:07:19;;;;;;;0.77;0.50;;;;;;;;;;5111094;28;20039;-71
2023/10/29 10:09:52;;;;;;;3.95;0.80;;;;;;;;;;5103356;28;20439;-69
2023/10/29 10:12:18;;;;;;;0.22;0.22;;;;;;;;;;5109728;28;20110;-71
2023/10/29 10:14:43;;;;;;;4.15;0.80;;;;;;;;;;5103435;28;20142;-71
2023/10/29 10:17:10;;;;;;;0.45;0.32;;;;;;;;;;5097233;28;20047;-71
2023/10/29 10:19:36;;;;;;;0.25;0.20;;;;;;;;;;5090760;28;20468;-72
2023/10/29 10:22:03;;;;;;;0.30;0.30;;;;;;;;;;5092058;28;20032;-71
2023/10/29 10:24:47;;;;;;;5.45;1.35;;;;;;;;;;5101788;28;20039;-71
2023/10/29 10:27:12;;;;;;;2.67;0.80;;;;;;;;;;5096883;28;20066;-73
2023/10/29 10:29:38;;;;;;;2.00;0.70;;;;;;;;;;5099092;28;20479;-71
2023/10/29 10:32:04;;;;;;;1.13;0.35;;;;;;;;;;5079618;28;20023;-72
2023/10/29 10:34:31;;;;;;;0.30;0.30;;;;;;;;;;5101455;28;20027;-72
2023/10/29 10:37:04;;;;;;;0.20;0.20;;;;;;;;;;5110247;28;20065;-71
2023/10/29 10:39:33;;;;;;;0.30;0.30;;;;;;;;;;5110635;28;20031;-70
2023/10/29 10:42:00;;;;;;;;;;;;;;;;;;5108093;28;20032;-71
2023/10/29 10:44:26;;;;;;;1.33;0.50;;;;;;;;;;5108612;28;19920;-71
2023/10/29 10:46:56;;;;;;;2.45;0.68;;;;;;;;;;5107979;28;20035;-75
2023/10/29 10:49:22;;;;;;;2.03;0.55;;;;;;;;;;5107962;28;20084;-74
2023/10/29 10:51:49;;;;;;;1.20;0.43;;;;;;;;;;5108090;28;20031;-74
2023/10/29 10:54:19;;;;;;;5.32;0.73;;;;;;;;;;5107849;28;20031;-76
2023/10/29 10:56:44;;;;;;;;;;;;;;;;;;5108633;28;20028;-74
2023/10/29 10:59:10;;;;;;;5.15;0.95;;;;;;;;;;5108400;28;19916;-75
2023/10/29 11:01:36;;;;;;;0.25;0.22;;;;;;;;;;5107812;28;20032;-74
2023/10/29 11:04:03;;;;;;;1.25;0.32;;;;;;;;;;5085899;28;20032;-71
2023/10/29 11:06:32;;;;;;;7.40;1.30;;;;;;;;;;5100660;28;20031;-75
2023/10/29 11:09:01;;;;;;;2.72;0.82;;;;;;;;;;5071783;28;20109;-74
2023/10/29 11:11:28;;;;;;;1.88;0.80;;;;;;;;;;5102967;28;20022;-74
2023/10/29 11:14:07;;;;;;;0.95;0.30;;;;;;;;;;5104833;28;20279;-74
2023/10/29 11:16:33;;;;;;;1.48;0.47;;;;;;;;;;5102831;28;20073;-74
2023/10/29 11:18:58;;;;;;;8.70;1.05;;;;;;;;;;5106196;28;20035;-73
2023/10/29 11:21:38;;;;;;;9.30;0.98;;;;;;;;;;5106828;28;20043;-74
2023/10/29 11:24:17;;;;;;;2.45;0.40;;;;;;;;;;5108211;28;20047;-73
2023/10/29 11:26:43;;;;;;;0.30;0.30;;;;;;;;;;5105351;28;20027;-75
2023/10/29 11:29:09;;;;;;;3.15;0.57;;;;;;;;;;5105324;28;20036;-73
2023/10/29 11:31:35;;;;;;;1.15;0.95;;;;;;;;;;5105561;28;20027;-72
2023/10/29 11:34:00;;;;;;;5.60;0.80;;;;;;;;;;5104920;28;20038;-72
2023/10/29 11:36:33;;;;;;;6.65;0.55;;;;;;;;;;5105098;28;20028;-74
2023/10/29 11:39:18;;;;;;;0.25;0.25;;;;;;;;;;5106012;28;20042;-74
2023/10/29 11:41:45;;;;;;;1.52;0.60;;;;;;;;;;5106052;28;20116;-74
2023/10/29 11:44:24;;;;;;;1.95;0.60;;;;;;;;;;5105457;28;20089;-75
2023/10/29 11:46:56;;;;;;;1.10;0.63;;;;;;;;;;5106495;28;20027;-75
2023/10/29 11:49:22;;;;;;;3.80;1.30;;;;;;;;;;5106814;28;20082;-75
2023/10/29 11:52:01;;;;;;;0.50;0.30;;;;;;;;;;5107696;28;20097;-75
2023/10/29 11:54:34;;;;;;;0.30;0.30;;;;;;;;;;5107377;28;20479;-75
2023/10/29 11:57:00;;;;;;;0.20;0.20;;;;;;;;;;5106465;28;20027;-74
2023/10/29 11:59:26;;;;;;;5.95;0.93;;;;;;;;;;5107831;28;20047;-74
2023/10/29 12:01:53;;;;;;;1.13;0.40;;;;;;;;;;5107357;28;20457;-75
2023/10/29 12:04:18;;;;;;;0.88;0.45;;;;;;;;;;5108326;28;20088;-74
2023/10/29 12:06:45;;;;;;;0.20;0.20;;;;;;;;;;5109386;28;20039;-75
2023/10/29 12:09:14;;;;;;;0.30;0.30;;;;;;;;;;5109303;28;20463;-75
2023/10/29 12:11:40;;;;;;;4.50;1.33;;;;;;;;;;5108997;28;20435;-75
2023/10/29 12:14:06;;;;;;;1.13;0.90;;;;;;;;;;5109726;28;20048;-74
2023/10/29 12:16:32;;;;;;;4.13;0.55;;;;;;;;;;5109251;28;20043;-74
2023/10/29 12:18:58;;;;;;;0.65;0.38;;;;;;;;;;5109519;28;20028;-74
2023/10/29 12:21:24;;;;;;;1.10;0.40;;;;;;;;;;5108879;28;20039;-73
2023/10/29 12:23:50;;;;;;;1.08;0.38;;;;;;;;;;5108245;28;20043;-73
2023/10/29 12:26:16;;;;;;;0.20;0.20;;;;;;;;;;5109472;28;20040;-74
2023/10/29 12:28:42;;;;;;;2.20;0.52;;;;;;;;;;5109311;28;20472;-75
2023/10/29 12:31:26;;;;;;;0.28;0.28;;;;;;;;;;5108953;28;20024;-74
2023/10/29 12:33:58;;;;;;;4.03;1.10;;;;;;;;;;5109140;28;20034;-74
2023/10/29 12:36:25;;;;;;;3.10;0.77;;;;;;;;;;5108946;28;20020;-74
2023/10/29 12:38:52;;;;;;;0.40;0.32;;;;;;;;;;5108919;28;20035;-75
2023/10/29 12:41:20;;;;;;;0.20;0.20;;;;;;;;;;5109416;28;20098;-75
2023/10/29 12:43:52;;;;;;;0.70;0.63;;;;;;;;;;5109155;28;20042;-75
2023/10/29 12:46:18;;;;;;;5.30;2.90;;;;;;;;;;5109078;28;20088;-75
2023/10/29 12:49:03;;;;;;;1.17;0.30;;;;;;;;;;5109065;28;20032;-75
2023/10/29 12:51:35;;;;;;;2.78;0.73;;;;;;;;;;5107229;28;20386;-74
2023/10/29 12:54:15;;;;;;;0.20;0.20;;;;;;;;;;5109169;28;20487;-73
2023/10/29 12:56:51;;;;;;;1.08;0.88;;;;;;;;;;5112165;28;20032;-73
2023/10/29 12:59:17;;;;;;;4.85;1.50;;;;;;;;;;5104349;28;20145;-75
2023/10/29 13:01:50;;;;;;;1.40;0.77;;;;;;;;;;5112974;28;20030;-75
2023/10/29 13:04:17;;;;;;;1.15;0.52;;;;;;;;;;5109787;28;20071;-75
2023/10/29 13:06:42;;;;;;;3.20;0.50;;;;;;;;;;5110892;28;20043;-74
2023/10/29 13:09:09;;;;;;;3.17;0.82;;;;;;;;;;5112057;28;20028;-74
2023/10/29 13:11:36;;;;;;;0.20;0.20;;;;;;;;;;5112490;28;20106;-74
2023/10/29 13:14:01;;;;;;;0.20;0.20;;;;;;;;;;5112220;28;20061;-74
2023/10/29 13:16:27;;;;;;;1.80;0.45;;;;;;;;;;5112167;28;20050;-75
2023/10/29 13:18:54;;;;;;;0.85;0.38;;;;;;;;;;5112138;28;20559;-74
2023/10/29 13:21:20;;;;;;;13.15;0.47;;;;;;;;;;5108361;28;20092;-72
2023/10/29 13:23:46;;;;;;;0.85;0.28;;;;;;;;;;5111134;28;20382;-75
2023/10/29 13:26:12;;;;;;;0.20;0.20;;;;;;;;;;5111293;28;20151;-75
2023/10/29 13:28:37;;;;;;;0.65;0.47;;;;;;;;;;5111421;28;20030;-75
2023/10/29 13:31:03;;;;;;;2.00;0.40;;;;;;;;;;5111280;28;20322;-75
2023/10/29 13:33:29;;;;;;;1.92;0.65;;;;;;;;;;5111267;28;20035;-75
2023/10/29 13:35:54;;;;;;;0.77;0.28;;;;;;;;;;5111437;28;20027;-74
2023/10/29 13:38:20;;;;;;;0.32;0.30;;;;;;;;;;5111719;28;20020;-73
2023/10/29 13:40:46;;;;;;;1.45;0.40;;;;;;;;;;5111292;28;20050;-73
2023/10/29 13:43:12;;;;;;;1.50;0.35;;;;;;;;;;5093741;28;20032;-75
2023/10/29 13:45:38;;;;;;;0.85;0.40;;;;;;;;;;5111462;28;20035;-75
2023/10/29 13:48:04;;;;;;;1.38;0.50;;;;;;;;;;5111304;28;20032;-74
2023/10/29 13:50:30;;;;;;;0.32;0.32;;;;;;;;;;5110197;28;20067;-75
2023/10/29 13:52:57;;;;;;;0.50;0.43;;;;;;;;;;5111732;28;20108;-74
2023/10/29 13:55:23;;;;;;;4.40;0.57;;;;;;;;;;5111437;28;20119;-75
2023/10/29 13:57:49;;;;;;;0.20;0.20;;;;;;;;;;5111068;28;20036;-74
2023/10/29 14:00:16;;;;;;;2.65;0.88;;;;;;;;;;5110167;28;20043;-73
2023/10/29 14:02:42;;;;;;;1.17;0.38;;;;;;;;;;5109242;28;20424;-75
2023/10/29 14:05:08;;;;;;;2.47;0.50;;;;;;;;;;5109407;28;20375;-74
2023/10/29 14:07:34;;;;;;;0.55;0.38;;;;;;;;;;5109401;28;20047;-75
2023/10/29 14:09:59;;;;;;;1.20;0.68;;;;;;;;;;5090991;28;20039;-74
2023/10/29 14:12:25;;;;;;;0.90;0.40;;;;;;;;;;5110029;28;20390;-74
2023/10/29 14:14:51;;;;;;;1.70;0.68;;;;;;;;;;5108940;28;20479;-72
2023/10/29 14:17:17;;;;;;;3.40;1.88;;;;;;;;;;5109034;28;20028;-74
2023/10/29 14:19:42;;;;;;;0.65;0.40;;;;;;;;;;5109285;28;20463;-74
2023/10/29 14:22:08;;;;;;;0.20;0.20;;;;;;;;;;5108824;28;20027;-75
2023/10/29 14:24:35;;;;;;;2.50;0.73;;;;;;;;;;5109174;28;20379;-74
2023/10/29 14:27:00;;;;;;;2.15;0.50;;;;;;;;;;5110267;28;20040;-74
2023/10/29 14:29:26;;;;;;;1.55;0.60;;;;;;;;;;5110690;28;20043;-75
2023/10/29 14:31:53;;;;;;;0.40;0.30;;;;;;;;;;5110824;28;20038;-74
2023/10/29 14:34:20;;;;;;;0.75;0.40;;;;;;;;;;5111113;28;20030;-75
2023/10/29 14:36:46;;;;;;;0.20;0.20;;;;;;;;;;5110520;28;20053;-73
2023/10/29 14:39:11;;;;;;;1.67;0.35;;;;;;;;;;5109331;28;20031;-74